Air Quality Table

TIMESTAMP NO2 SO2 PM10 PM2.5 CO TEMP HUM AIRPRES WS WD NO
2022-08-15 01:00 26.09 µg/m3 4.66 µg/m3 N/A N/A N/A 29.27 °C 70.97 % 1,007.57 mbar 2.27 m/s 257.67 Deg 11.49 µg/m3
2022-08-14 01:00 22.29 µg/m3 3.64 µg/m3 N/A N/A N/A 27.98 °C 69.79 % 1,010.27 mbar 3.61 m/s 262.35 Deg 7.19 µg/m3
2022-08-13 01:00 21.36 µg/m3 2.73 µg/m3 N/A N/A N/A 27.24 °C 72.06 % 1,009.96 mbar 1.67 m/s 258.87 Deg 15.93 µg/m3
2022-08-12 01:00 22.86 µg/m3 2.51 µg/m3 N/A N/A N/A 27.66 °C 73.04 % 1,010.73 mbar 0.86 m/s 233.29 Deg 8.42 µg/m3
2022-08-11 01:00 22.83 µg/m3 2.29 µg/m3 N/A N/A N/A 28.89 °C 69.93 % 1,011.49 mbar 1.37 m/s 228.07 Deg 5.18 µg/m3
2022-08-10 01:00 24.27 µg/m3 2.82 µg/m3 N/A N/A N/A 29.04 °C 73.39 % 1,011.56 mbar 1.09 m/s 248.81 Deg 9.12 µg/m3
2022-08-09 01:00 18.51 µg/m3 2.56 µg/m3 N/A N/A N/A 28.99 °C 76.15 % 1,010.03 mbar 0.86 m/s 221.73 Deg 9.78 µg/m3
2022-08-08 01:00 10.67 µg/m3 1.99 µg/m3 N/A N/A N/A 28.95 °C 73.97 % 1,008.57 mbar 1.34 m/s 251.07 Deg 1.52 µg/m3
2022-08-07 01:00 14.68 µg/m3 2.49 µg/m3 N/A N/A N/A 29.47 °C 65.73 % 1,010.25 mbar 3.38 m/s 267.56 Deg 3.07 µg/m3
2022-08-06 01:00 23.41 µg/m3 2.85 µg/m3 N/A N/A N/A 29.24 °C 64.8 % 1,011.85 mbar 1.91 m/s 289.76 Deg 4.11 µg/m3
2022-08-05 01:00 19.42 µg/m3 3.27 µg/m3 N/A N/A N/A 29 °C 68.99 % 1,012.30 mbar 0.77 m/s 226.36 Deg 7.01 µg/m3
2022-08-04 01:00 12.29 µg/m3 2 µg/m3 N/A N/A N/A 28.82 °C 67.87 % 1,011.26 mbar 0.87 m/s 220.98 Deg 3.04 µg/m3
2022-08-03 01:00 17.24 µg/m3 2.44 µg/m3 N/A N/A N/A 28.76 °C 72.9 % 1,010.32 mbar 1.07 m/s 256.02 Deg 4.7 µg/m3
2022-08-02 01:00 17.76 µg/m3 2.11 µg/m3 N/A N/A N/A 28.82 °C 73.38 % 1,010.14 mbar 1.52 m/s 249.21 Deg 4.05 µg/m3
2022-08-01 01:00 12.75 µg/m3 3.04 µg/m3 N/A N/A N/A 29.31 °C 72.9 % 1,010.29 mbar 1.45 m/s 237.79 Deg 2.23 µg/m3
2022-07-31 01:00 28.33 µg/m3 0.91 µg/m3 N/A N/A N/A 29.78 °C 67.19 % 1,011.36 mbar 2.96 m/s 247.51 Deg 21.63 µg/m3
2022-07-30 01:00 14.99 µg/m3 3.02 µg/m3 N/A N/A N/A 29.59 °C 72.6 % 1,011.70 mbar 1.05 m/s 192.75 Deg 2.6 µg/m3
2022-07-29 01:00 13.54 µg/m3 2.54 µg/m3 N/A N/A N/A 28.78 °C 81.45 % 1,008.84 mbar 1.38 m/s 218.65 Deg 5.4 µg/m3
2022-07-28 01:00 14.58 µg/m3 2.23 µg/m3 N/A N/A N/A 29.16 °C 75.94 % 1,006.93 mbar 1.87 m/s 247.2 Deg 2.77 µg/m3
2022-07-27 01:00 19.41 µg/m3 1.95 µg/m3 N/A N/A N/A 29.94 °C 66.4 % 1,008.41 mbar 3.51 m/s 231.11 Deg 3.92 µg/m3
2022-07-26 01:00 31.74 µg/m3 2.18 µg/m3 N/A N/A N/A 30.05 °C 64.19 % 1,010.89 mbar 1.9 m/s 232.78 Deg 10.21 µg/m3
2022-07-25 01:00 29.18 µg/m3 1.98 µg/m3 N/A N/A N/A 28.75 °C 66.78 % 1,013.76 mbar 4 m/s 247.39 Deg 17.76 µg/m3
2022-07-24 01:00 27.91 µg/m3 1.34 µg/m3 N/A N/A N/A 29.06 °C 60.65 % 1,014.99 mbar 2.27 m/s 245.54 Deg 8.85 µg/m3
2022-07-23 01:00 21.34 µg/m3 1.03 µg/m3 N/A N/A N/A 28.3 °C 75.48 % 1,014.26 mbar 1.09 m/s 249.14 Deg 5.41 µg/m3
2022-07-22 01:00 14.31 µg/m3 1.68 µg/m3 N/A N/A N/A 28.42 °C 70.41 % 1,014.45 mbar 0.95 m/s 256.32 Deg 2.08 µg/m3
2022-07-21 01:00 9.74 µg/m3 1.97 µg/m3 N/A N/A N/A 28.53 °C 67.83 % 1,014.95 mbar 0.7 m/s 204.58 Deg 1.34 µg/m3
2022-07-20 01:00 10.19 µg/m3 1.94 µg/m3 N/A N/A N/A 28.65 °C 70.27 % 1,014.57 mbar 0.71 m/s 244.35 Deg 1.35 µg/m3
2022-07-19 01:00 35.63 µg/m3 2.31 µg/m3 N/A N/A N/A 28.2 °C 69.69 % 1,015.15 mbar 1.07 m/s 234.72 Deg 11.91 µg/m3
2022-07-18 01:00 22.39 µg/m3 2.32 µg/m3 N/A N/A N/A 27.5 °C 68.42 % 1,014.91 mbar 1.12 m/s 237.14 Deg 5.81 µg/m3
2022-07-17 01:00 20.24 µg/m3 1.9 µg/m3 N/A N/A N/A 27.11 °C 71.64 % 1,013.66 mbar 1.18 m/s 253.97 Deg 3.75 µg/m3

It is to be noted that the data is provisional and subject to quality assurance procedures. For validated data kindly refer your request to contact.air@era.org.mt